Terminal Aerodrome Forecast
Issued by NWS Cleveland, OH

Home | Current Version | Previous Version | Text Only | Print | Product List | Glossary Off
Versions: 1 2 3 4 5 6 7 8 9 10 11 12 13 14 15 16 17 18 19 20 21 22 23 24

000
FTUS41 KCLE 131120
TAFYNG
TAF
KYNG 131120Z 1312/1412 34015G25KT 4SM -SN BLSN OVC025
     FM131600 33012KT P6SM BKN070
     FM132000 32009KT P6SM BKN060
     FM140300 30004KT P6SM BKN035
     FM140900 00000KT P6SM SCT050=

USA.gov is the U.S. government's official web portal to all federal, state and local government web resources and services.